createdAt,value
2018-11-07T00:02:16.571Z,20.66
2018-11-07T00:04:50.278Z,20.66
2018-11-07T00:07:23.729Z,20.65
2018-11-07T00:09:57.309Z,20.64
2018-11-07T00:12:30.766Z,20.63
2018-11-07T00:15:04.460Z,20.65
2018-11-07T00:17:38.277Z,20.65
2018-11-07T00:20:13.636Z,20.64
2018-11-07T00:22:47.054Z,20.64
2018-11-07T00:25:20.572Z,20.65
2018-11-07T00:27:54.273Z,20.65
2018-11-07T00:30:27.774Z,20.65
2018-11-07T00:33:01.582Z,20.64
2018-11-07T00:35:35.311Z,20.64
2018-11-07T00:38:09.364Z,20.63
2018-11-07T00:40:42.783Z,20.62
2018-11-07T00:43:15.507Z,20.62
2018-11-07T00:45:48.340Z,20.63
2018-11-07T00:48:22.051Z,20.63
2018-11-07T00:50:55.596Z,20.62
2018-11-07T00:53:29.284Z,20.62
2018-11-07T00:56:02.805Z,20.61
2018-11-07T00:58:36.515Z,20.61
2018-11-07T01:01:10.331Z,20.61
2018-11-07T01:03:44.395Z,20.59
2018-11-07T01:06:18.052Z,20.59
2018-11-07T01:08:51.526Z,20.59
2018-11-07T01:11:25.280Z,20.57
2018-11-07T01:13:59.312Z,20.57
2018-11-07T01:16:32.858Z,20.57
2018-11-07T01:19:06.480Z,20.57
2018-11-07T01:21:40.272Z,20.57
2018-11-07T01:24:13.708Z,20.53
2018-11-07T01:26:47.898Z,20.52
2018-11-07T01:29:20.314Z,20.53
2018-11-07T01:31:54.570Z,20.54
2018-11-07T01:34:28.055Z,20.52
2018-11-07T01:37:01.759Z,20.52
2018-11-07T01:39:35.346Z,20.51
2018-11-07T01:42:09.421Z,20.51
2018-11-07T01:44:42.780Z,20.51
2018-11-07T01:47:16.370Z,20.47
2018-11-07T01:49:49.797Z,20.47
2018-11-07T01:52:23.505Z,20.50
2018-11-07T01:54:57.048Z,20.50
2018-11-07T01:57:30.587Z,20.48
2018-11-07T02:00:04.279Z,20.51
2018-11-07T02:02:37.730Z,20.49
2018-11-07T02:05:11.581Z,20.49
2018-11-07T02:07:45.511Z,20.52
2018-11-07T02:10:19.331Z,20.52
2018-11-07T02:12:52.775Z,20.51
2018-11-07T02:15:26.465Z,20.51
2018-11-07T02:17:59.770Z,20.51
2018-11-07T02:20:33.501Z,20.49
2018-11-07T02:23:07.506Z,20.49
2018-11-07T02:25:41.043Z,20.48
2018-11-07T02:28:15.324Z,20.48
2018-11-07T02:30:48.669Z,20.48
2018-11-07T02:33:21.977Z,20.47
2018-11-07T02:35:55.759Z,20.47
2018-11-07T02:38:28.890Z,20.48
2018-11-07T02:41:01.233Z,20.46
2018-11-07T02:43:34.774Z,20.45
2018-11-07T02:46:09.298Z,20.36
2018-11-07T02:48:42.742Z,20.36
2018-11-07T02:51:16.513Z,20.46
2018-11-07T02:53:49.893Z,20.46
2018-11-07T02:56:23.580Z,20.44
2018-11-07T02:58:57.268Z,20.44
2018-11-07T03:01:31.277Z,20.44
2018-11-07T03:04:04.652Z,20.43
2018-11-07T03:06:38.543Z,20.44
2018-11-07T03:09:13.368Z,20.43
2018-11-07T03:11:46.806Z,20.44
2018-11-07T03:14:20.271Z,20.36
2018-11-07T03:16:53.512Z,20.36
2018-11-07T03:19:26.549Z,20.47
2018-11-07T03:21:59.534Z,20.48
2018-11-07T03:24:32.537Z,20.48
2018-11-07T03:27:06.495Z,20.47
2018-11-07T03:29:39.439Z,20.45
2018-11-07T03:32:12.887Z,20.45
2018-11-07T03:34:44.787Z,20.46
2018-11-07T03:37:18.295Z,20.40
2018-11-07T03:39:51.556Z,20.40
2018-11-07T03:42:24.539Z,20.46
2018-11-07T03:44:57.973Z,20.45
2018-11-07T03:47:31.355Z,20.44
2018-11-07T03:50:05.160Z,20.45
2018-11-07T03:52:38.422Z,20.44
2018-11-07T03:55:11.579Z,20.43
2018-11-07T03:57:44.539Z,20.44
2018-11-07T04:00:17.551Z,20.44
2018-11-07T04:02:50.534Z,20.43
2018-11-07T04:05:23.581Z,20.43
2018-11-07T04:07:57.125Z,20.39
2018-11-07T04:10:30.486Z,20.40
2018-11-07T04:13:03.505Z,20.40
2018-11-07T04:15:36.606Z,20.39
2018-11-07T04:18:10.122Z,20.40
2018-11-07T04:20:43.711Z,20.40
2018-11-07T04:23:16.728Z,20.38
2018-11-07T04:25:49.850Z,20.38
2018-11-07T04:28:23.361Z,20.32
2018-11-07T04:30:56.529Z,20.32
2018-11-07T04:33:29.769Z,20.43
2018-11-07T04:36:03.689Z,20.41
2018-11-07T04:38:37.318Z,20.41
2018-11-07T04:41:11.018Z,20.47
2018-11-07T04:43:45.272Z,20.47
2018-11-07T04:46:19.270Z,20.48
2018-11-07T04:48:52.750Z,20.50
2018-11-07T04:51:26.241Z,20.51
2018-11-07T04:56:32.578Z,20.52
2018-11-07T04:59:06.370Z,20.48
2018-11-07T05:01:40.383Z,20.47
2018-11-07T05:04:14.358Z,20.46
2018-11-07T05:06:49.755Z,20.47
2018-11-07T05:09:23.343Z,20.49
2018-11-07T05:11:56.792Z,20.45
2018-11-07T05:14:30.853Z,20.51
2018-11-07T05:17:04.515Z,20.49
2018-11-07T05:19:38.002Z,20.49
2018-11-07T05:22:11.608Z,20.54
2018-11-07T05:24:45.483Z,20.54
2018-11-07T05:27:19.137Z,20.52
2018-11-07T05:29:52.596Z,20.52
2018-11-07T05:32:26.619Z,20.52
2018-11-07T05:35:00.277Z,20.52
2018-11-07T05:37:33.756Z,20.50
2018-11-07T05:40:07.510Z,20.46
2018-11-07T05:42:41.280Z,20.46
2018-11-07T05:45:14.896Z,20.50
2018-11-07T05:47:47.252Z,20.50
2018-11-07T05:50:20.780Z,20.51
2018-11-07T05:52:54.581Z,20.52
2018-11-07T05:55:28.547Z,20.52
2018-11-07T05:58:02.363Z,20.52
2018-11-07T06:00:35.978Z,20.52
2018-11-07T06:03:09.601Z,20.52
2018-11-07T06:05:43.582Z,20.52
2018-11-07T06:08:17.317Z,20.51
2018-11-07T06:10:50.787Z,20.53
2018-11-07T06:13:24.547Z,20.54
2018-11-07T06:15:58.419Z,20.54
2018-11-07T06:18:32.068Z,20.53
2018-11-07T06:21:05.630Z,20.54
2018-11-07T06:23:39.288Z,20.55
2018-11-07T06:26:13.355Z,20.55
2018-11-07T06:28:47.272Z,20.54
2018-11-07T06:31:20.791Z,20.55
2018-11-07T06:33:53.655Z,20.55
2018-11-07T06:36:27.348Z,20.56
2018-11-07T06:39:00.807Z,20.56
2018-11-07T06:41:33.562Z,20.56
2018-11-07T06:44:06.409Z,20.55
2018-11-07T06:46:40.056Z,20.56
2018-11-07T06:49:15.778Z,20.57
2018-11-07T06:51:49.432Z,20.50
2018-11-07T06:54:23.517Z,20.50
2018-11-07T06:56:57.602Z,20.56
2018-11-07T06:59:31.065Z,20.55
2018-11-07T07:02:04.777Z,20.55
2018-11-07T07:04:37.659Z,20.54
2018-11-07T07:07:10.464Z,20.56
2018-11-07T07:09:45.379Z,20.56
2018-11-07T07:12:19.273Z,20.58
2018-11-07T07:14:52.759Z,20.58
2018-11-07T07:17:26.430Z,20.58
2018-11-07T07:20:00.083Z,20.58
2018-11-07T07:22:33.610Z,20.61
2018-11-07T07:25:07.807Z,20.62
2018-11-07T07:27:40.966Z,20.62
2018-11-07T07:30:16.149Z,20.63
2018-11-07T07:32:50.274Z,20.64
2018-11-07T07:35:23.786Z,20.64
2018-11-07T07:37:57.766Z,20.66
2018-11-07T07:40:31.374Z,20.61
2018-11-07T07:43:05.289Z,20.61
2018-11-07T07:45:38.842Z,20.65
2018-11-07T07:48:11.605Z,20.65
2018-11-07T07:51:22.452Z,20.71
2018-11-07T07:53:56.273Z,20.64
2018-11-07T07:56:29.481Z,20.64
2018-11-07T07:59:03.000Z,20.63
2018-11-07T08:01:36.628Z,20.61
2018-11-07T08:04:10.705Z,20.61
2018-11-07T08:06:43.764Z,20.62
2018-11-07T08:09:17.291Z,20.63
2018-11-07T08:11:51.295Z,20.63
2018-11-07T08:14:25.047Z,20.62
2018-11-07T08:16:58.672Z,20.61
2018-11-07T08:19:32.371Z,20.62
2018-11-07T08:22:05.493Z,20.61
2018-11-07T08:24:38.657Z,20.61
2018-11-07T08:27:11.679Z,20.61
2018-11-07T08:29:44.791Z,20.59
2018-11-07T08:32:19.560Z,20.60
2018-11-07T08:34:52.576Z,20.60
2018-11-07T08:37:26.048Z,20.60
2018-11-07T08:39:59.627Z,20.61
2018-11-07T08:42:33.389Z,20.61
2018-11-07T08:45:08.344Z,20.62
2018-11-07T08:47:42.280Z,20.61
2018-11-07T08:50:18.344Z,20.61
2018-11-07T08:52:52.281Z,20.63
2018-11-07T08:55:25.995Z,20.64
2018-11-07T08:57:59.548Z,20.64
2018-11-07T09:00:33.297Z,20.65
2018-11-07T09:03:07.441Z,20.64
2018-11-07T09:05:40.942Z,20.66
2018-11-07T09:08:14.590Z,20.65
2018-11-07T09:10:48.324Z,20.65
2018-11-07T09:13:22.063Z,20.65
2018-11-07T09:15:55.759Z,20.64
2018-11-07T09:18:29.449Z,20.63
2018-11-07T09:21:03.285Z,20.63
2018-11-07T09:23:36.782Z,20.62
2018-11-07T09:26:09.626Z,20.63
2018-11-07T09:28:43.269Z,20.63
2018-11-07T09:31:16.793Z,20.63
2018-11-07T09:33:49.629Z,20.60
2018-11-07T09:36:23.094Z,20.62
2018-11-07T09:38:56.590Z,20.64
2018-11-07T09:41:30.149Z,20.62
2018-11-07T09:44:03.759Z,20.63
2018-11-07T09:46:37.691Z,20.56
2018-11-07T09:49:11.359Z,20.56
2018-11-07T09:51:44.993Z,20.61
2018-11-07T09:54:18.786Z,20.60
2018-11-07T09:56:52.345Z,20.61
2018-11-07T09:59:26.131Z,20.60
2018-11-07T10:01:59.623Z,20.61
2018-11-07T10:04:33.281Z,20.61
2018-11-07T10:07:07.452Z,20.60
2018-11-07T10:09:41.292Z,20.61
2018-11-07T10:12:14.850Z,20.61
2018-11-07T10:14:47.549Z,20.62
2018-11-07T10:17:20.638Z,20.64
2018-11-07T10:19:54.337Z,20.67
2018-11-07T10:22:28.291Z,20.68
2018-11-07T10:25:02.315Z,20.70
2018-11-07T10:27:36.050Z,20.72
2018-11-07T10:30:11.912Z,20.67
2018-11-07T10:32:46.901Z,20.67
2018-11-07T10:35:19.326Z,20.73
2018-11-07T10:37:53.611Z,20.73
2018-11-07T10:40:27.578Z,20.74
2018-11-07T10:43:01.305Z,20.73
2018-11-07T10:45:34.787Z,20.74
2018-11-07T10:48:08.817Z,20.75
2018-11-07T10:50:42.555Z,20.71
2018-11-07T10:53:16.293Z,20.71
2018-11-07T10:55:49.827Z,20.76
2018-11-07T10:58:23.501Z,20.74
2018-11-07T11:01:13.302Z,20.74
2018-11-07T11:03:47.295Z,20.73
2018-11-07T11:06:20.780Z,20.72
2018-11-07T11:08:54.250Z,20.72
2018-11-07T11:11:26.975Z,20.73
2018-11-07T11:13:59.438Z,20.73
2018-11-07T11:16:33.283Z,20.72
2018-11-07T11:19:07.558Z,20.73
2018-11-07T11:21:41.291Z,20.73
2018-11-07T11:24:14.811Z,20.73
2018-11-07T11:26:48.762Z,20.69
2018-11-07T11:29:22.049Z,20.69
2018-11-07T11:31:56.065Z,20.72
2018-11-07T11:34:29.903Z,20.72
2018-11-07T11:37:04.289Z,20.67
2018-11-07T11:39:37.790Z,20.67
2018-11-07T11:42:11.822Z,20.68
2018-11-07T11:44:45.474Z,20.69
2018-11-07T11:47:19.290Z,20.69
2018-11-07T11:49:53.062Z,20.75
2018-11-07T11:52:27.357Z,20.76
2018-11-07T11:55:00.776Z,20.75
2018-11-07T11:57:34.515Z,20.78
2018-11-07T12:00:09.678Z,20.78
2018-11-07T12:02:43.269Z,20.77
2018-11-07T12:05:18.277Z,20.76
2018-11-07T12:07:52.543Z,20.75
2018-11-07T12:10:28.343Z,20.76
2018-11-07T12:13:02.273Z,20.78
2018-11-07T12:15:36.035Z,20.75
2018-11-07T12:18:09.770Z,20.75
2018-11-07T12:20:42.531Z,20.75
2018-11-07T12:23:16.534Z,20.76
2018-11-07T12:25:50.264Z,20.74
2018-11-07T12:28:23.753Z,20.76
2018-11-07T12:30:57.367Z,20.70
2018-11-07T12:33:31.122Z,20.70
2018-11-07T12:36:05.529Z,20.74
2018-11-07T12:38:39.278Z,20.75
2018-11-07T12:41:12.501Z,20.73
2018-11-07T12:43:45.660Z,20.74
2018-11-07T12:46:19.340Z,20.73
2018-11-07T12:48:52.489Z,20.73
2018-11-07T12:51:26.042Z,20.74
2018-11-07T12:53:59.839Z,20.73
2018-11-07T12:56:33.271Z,20.74
2018-11-07T12:59:07.062Z,20.74
2018-11-07T13:01:41.276Z,20.74
2018-11-07T13:04:14.652Z,20.74
2018-11-07T13:06:47.531Z,20.74
2018-11-07T13:09:20.634Z,20.74
2018-11-07T13:11:53.645Z,20.75
2018-11-07T13:14:26.719Z,20.77
2018-11-07T13:17:00.360Z,20.79
2018-11-07T13:19:34.338Z,20.79
2018-11-07T13:22:08.301Z,20.79
2018-11-07T13:24:41.818Z,20.80
2018-11-07T13:27:14.661Z,20.80
2018-11-07T13:29:47.966Z,20.79
2018-11-07T13:32:21.745Z,20.80
2018-11-07T13:34:55.421Z,20.71
2018-11-07T13:37:29.358Z,20.71
2018-11-07T13:40:02.710Z,20.79
2018-11-07T13:42:36.499Z,20.78
2018-11-07T13:45:13.429Z,20.77
2018-11-07T13:47:48.268Z,20.77
2018-11-07T13:50:22.262Z,20.78
2018-11-07T13:52:56.072Z,20.77
2018-11-07T13:55:30.284Z,20.78
2018-11-07T13:58:03.812Z,20.77
2018-11-07T14:00:37.503Z,20.70
2018-11-07T14:03:11.036Z,20.70
2018-11-07T14:05:44.845Z,20.76
2018-11-07T14:08:18.390Z,20.74
2018-11-07T14:10:52.277Z,20.74
2018-11-07T14:13:25.789Z,20.74
2018-11-07T14:15:59.431Z,20.67
2018-11-07T14:18:32.837Z,20.67
2018-11-07T14:21:06.502Z,20.72
2018-11-07T14:23:39.959Z,20.72
2018-11-07T14:26:13.610Z,20.74
2018-11-07T14:28:47.396Z,20.74
2018-11-07T14:31:20.796Z,20.75
2018-11-07T14:33:55.288Z,20.74
2018-11-07T14:36:28.782Z,20.74
2018-11-07T14:39:02.000Z,20.76
2018-11-07T14:41:34.619Z,20.79
2018-11-07T14:44:08.772Z,20.82
2018-11-07T14:46:43.277Z,20.78
2018-11-07T14:49:16.802Z,20.78
2018-11-07T14:51:50.518Z,20.78
2018-11-07T14:54:24.334Z,20.78
2018-11-07T14:56:58.397Z,20.84
2018-11-07T14:59:32.424Z,20.82
2018-11-07T15:02:06.270Z,21.00
2018-11-07T15:04:39.866Z,24.33
2018-11-07T15:07:12.399Z,27.73
2018-11-07T15:09:46.264Z,31.04
2018-11-07T15:12:19.707Z,33.13
2018-11-07T15:14:53.374Z,33.63
2018-11-07T15:17:27.261Z,33.47
2018-11-07T15:20:01.368Z,33.17
2018-11-07T15:22:34.987Z,32.68
2018-11-07T15:25:09.852Z,32.07
2018-11-07T15:27:44.813Z,30.85
2018-11-07T15:30:19.061Z,30.19
2018-11-07T15:32:52.905Z,30.19
2018-11-07T15:35:25.321Z,29.66
2018-11-07T15:37:58.805Z,29.16
2018-11-07T15:40:32.774Z,28.23
2018-11-07T15:43:06.891Z,27.74
2018-11-07T15:45:40.780Z,27.34
2018-11-07T15:48:14.549Z,26.96
2018-11-07T15:51:05.528Z,26.96
2018-11-07T15:53:39.369Z,26.66
2018-11-07T15:56:13.266Z,26.29
2018-11-07T15:58:47.049Z,26.01
2018-11-07T16:01:20.996Z,25.73
2018-11-07T16:04:27.534Z,25.59
2018-11-07T16:07:00.626Z,25.26
2018-11-07T16:09:33.656Z,24.98
2018-11-07T16:12:06.847Z,24.77
2018-11-07T16:14:39.065Z,24.37
2018-11-07T16:17:12.470Z,24.37
2018-11-07T16:19:45.848Z,24.20
2018-11-07T16:22:18.346Z,24.03
2018-11-07T16:24:51.771Z,23.88
2018-11-07T16:27:25.354Z,23.59
2018-11-07T16:29:58.743Z,23.59
2018-11-07T16:32:32.637Z,23.35
2018-11-07T16:35:06.554Z,23.35
2018-11-07T16:37:40.305Z,23.24
2018-11-07T16:40:15.583Z,23.14
2018-11-07T16:42:49.280Z,23.09
2018-11-07T16:45:22.722Z,23.10
2018-11-07T16:47:56.371Z,23.05
2018-11-07T16:50:29.787Z,22.97
2018-11-07T16:53:03.526Z,22.83
2018-11-07T16:55:37.269Z,22.83
2018-11-07T16:58:10.742Z,22.75
2018-11-07T17:00:44.530Z,22.61
2018-11-07T17:03:18.678Z,22.61
2018-11-07T17:05:52.275Z,22.54
2018-11-07T17:08:25.733Z,22.47
2018-11-07T17:13:14.191Z,22.32
2018-11-07T17:15:47.265Z,22.19
2018-11-07T17:18:20.552Z,22.24
2018-11-07T17:20:53.534Z,22.25
2018-11-07T17:23:27.053Z,22.25
2018-11-07T17:26:00.880Z,22.25
2018-11-07T17:28:34.712Z,22.23
2018-11-07T17:31:08.391Z,22.21
2018-11-07T17:33:41.813Z,22.21
2018-11-07T17:36:15.226Z,22.16
2018-11-07T17:38:48.591Z,22.14
2018-11-07T17:41:22.494Z,22.12
2018-11-07T17:43:55.677Z,22.09
2018-11-07T17:46:29.540Z,22.04
2018-11-07T17:49:03.267Z,22.01
2018-11-07T17:51:36.677Z,21.96
2018-11-07T17:54:10.374Z,21.94
2018-11-07T17:56:44.319Z,21.91
2018-11-07T17:59:18.273Z,21.90
2018-11-07T18:01:51.793Z,21.87
2018-11-07T18:04:25.388Z,21.80
2018-11-07T18:06:59.055Z,21.80
2018-11-07T18:09:33.117Z,21.78
2018-11-07T18:12:06.752Z,21.75
2018-11-07T18:14:40.565Z,21.69
2018-11-07T18:17:14.235Z,21.69
2018-11-07T18:19:48.286Z,21.65
2018-11-07T18:22:22.287Z,21.63
2018-11-07T18:24:55.767Z,21.58
2018-11-07T18:27:29.411Z,21.51
2018-11-07T18:30:06.822Z,21.51
2018-11-07T18:32:39.968Z,21.47
2018-11-07T18:35:14.697Z,21.44
2018-11-07T18:37:49.054Z,21.43
2018-11-07T18:40:23.295Z,21.59
2018-11-07T18:42:57.523Z,22.68
2018-11-07T18:45:31.270Z,23.62
2018-11-07T18:48:04.733Z,24.14
2018-11-07T18:50:38.770Z,24.39
2018-11-07T18:53:12.623Z,24.89
2018-11-07T18:55:46.780Z,26.24
2018-11-07T18:58:21.354Z,28.92
2018-11-07T19:00:55.371Z,28.92
2018-11-07T19:03:29.277Z,29.11
2018-11-07T19:06:03.821Z,28.87
2018-11-07T19:08:38.292Z,28.02
2018-11-07T19:11:11.794Z,28.02
2018-11-07T19:13:44.605Z,27.61
2018-11-07T19:16:17.391Z,27.19
2018-11-07T19:18:51.280Z,26.81
2018-11-07T19:21:25.755Z,26.43
2018-11-07T19:23:59.370Z,25.71
2018-11-07T19:26:33.102Z,25.71
2018-11-07T19:29:07.286Z,25.47
2018-11-07T19:31:40.756Z,25.17
2018-11-07T19:34:14.810Z,24.68
2018-11-07T19:36:48.553Z,24.47
2018-11-07T19:39:23.267Z,24.47
2018-11-07T19:41:56.472Z,24.27
2018-11-07T19:44:29.546Z,24.11
2018-11-07T19:47:03.342Z,24.01
2018-11-07T19:49:36.505Z,23.86
2018-11-07T19:52:10.274Z,23.73
2018-11-07T19:54:43.517Z,23.60
2018-11-07T19:57:16.651Z,23.48
2018-11-07T19:59:49.708Z,23.34
2018-11-07T20:02:22.657Z,23.25
2018-11-07T20:04:55.658Z,23.14
2018-11-07T20:07:28.773Z,23.04
2018-11-07T20:10:02.290Z,22.81
2018-11-07T20:12:35.655Z,22.81
2018-11-07T20:15:11.366Z,22.76
2018-11-07T20:17:45.668Z,22.67
2018-11-07T20:20:19.334Z,22.56
2018-11-07T20:22:53.399Z,22.47
2018-11-07T20:25:27.273Z,22.40
2018-11-07T20:28:00.624Z,22.34
2018-11-07T20:30:34.735Z,22.27
2018-11-07T20:33:08.263Z,22.21
2018-11-07T20:35:42.008Z,22.15
2018-11-07T20:38:14.340Z,22.09
2018-11-07T20:40:47.627Z,22.03
2018-11-07T20:43:20.691Z,21.97
2018-11-07T20:45:54.095Z,21.93
2018-11-07T20:48:27.452Z,21.89
2018-11-07T20:51:01.017Z,21.83
2018-11-07T20:53:34.586Z,21.80
2018-11-07T20:56:08.319Z,21.74
2018-11-07T20:58:41.761Z,21.71
2018-11-07T21:01:15.576Z,21.60
2018-11-07T21:03:49.609Z,21.60
2018-11-07T21:06:23.316Z,21.60
2018-11-07T21:08:57.510Z,21.56
2018-11-07T21:11:31.063Z,21.52
2018-11-07T21:14:04.579Z,21.51
2018-11-07T21:16:38.590Z,21.48
2018-11-07T21:19:12.529Z,21.44
2018-11-07T21:21:46.510Z,21.42
2018-11-07T21:24:20.990Z,21.39
2018-11-07T21:26:55.333Z,21.38
2018-11-07T21:29:28.788Z,21.34
2018-11-07T21:32:02.558Z,21.26
2018-11-07T21:34:36.314Z,21.26
2018-11-07T21:37:09.785Z,21.27
2018-11-07T21:39:43.605Z,21.18
2018-11-07T21:42:18.055Z,21.18
2018-11-07T21:44:51.695Z,21.23
2018-11-07T21:47:28.328Z,21.19
2018-11-07T21:50:02.701Z,21.18
2018-11-07T21:52:36.318Z,21.15
2018-11-07T21:55:10.602Z,21.11
2018-11-07T21:57:44.277Z,21.11
2018-11-07T22:00:20.587Z,21.09
2018-11-07T22:02:54.151Z,21.06
2018-11-07T22:05:27.600Z,21.04
2018-11-07T22:08:01.049Z,21.04
2018-11-07T22:10:35.327Z,21.03
2018-11-07T22:13:09.390Z,21.02
2018-11-07T22:15:42.984Z,21.00
2018-11-07T22:18:16.784Z,20.98
2018-11-07T22:20:50.482Z,20.92
2018-11-07T22:23:23.792Z,20.92
2018-11-07T22:25:57.503Z,20.93
2018-11-07T22:28:31.371Z,20.93
2018-11-07T22:31:05.354Z,20.92
2018-11-07T22:33:38.735Z,20.92
2018-11-07T22:36:12.390Z,20.90
2018-11-07T22:38:45.785Z,20.90
2018-11-07T22:41:19.534Z,20.86
2018-11-07T22:43:53.469Z,20.86
2018-11-07T22:46:26.985Z,20.84
2018-11-07T22:49:00.773Z,20.82
2018-11-07T22:51:34.542Z,20.82
2018-11-07T22:54:08.380Z,20.82
2018-11-07T22:56:41.819Z,20.79
2018-11-07T22:59:15.568Z,20.75
2018-11-07T23:01:49.267Z,20.75
2018-11-07T23:04:22.776Z,20.78
2018-11-07T23:06:56.739Z,20.75
2018-11-07T23:09:30.478Z,20.75
2018-11-07T23:12:04.536Z,20.75
2018-11-07T23:14:38.653Z,20.74
2018-11-07T23:17:12.273Z,20.71
2018-11-07T23:19:46.273Z,20.71
2018-11-07T23:22:19.737Z,20.69
2018-11-07T23:24:53.482Z,20.67
2018-11-07T23:27:27.053Z,20.67
2018-11-07T23:30:00.730Z,20.66
2018-11-07T23:32:34.822Z,20.66
2018-11-07T23:35:08.415Z,20.66
2018-11-07T23:37:41.246Z,20.64
2018-11-07T23:40:15.056Z,20.64
2018-11-07T23:42:48.607Z,20.61
2018-11-07T23:45:22.493Z,20.61
2018-11-07T23:47:56.535Z,20.61
2018-11-07T23:50:30.628Z,20.60
2018-11-07T23:53:06.283Z,20.60
2018-11-07T23:55:39.882Z,20.58
2018-11-07T23:58:12.235Z,20.58
